Sterling, Ohio
Current Conditions -  °F | °C
As of 11:54 PM on Saturday 22 Nov 2014 (Local Time) from KAKR Reporting Station
Broken Clouds Broken Clouds  
Wind Chill: 44°   Ceiling: 4800
Heat Index: 48°   Visibility: 10mi
Dew Point: 34°   Wind: 9mph
Humidity: 58%   Direction: 200°SSW
Pressure: 30.04"   Gusts: NA
Location:  40.97°N, 81.85°W
Report Text: KAKR 230454Z AUTO 20008KT 10SM BKN048 BKN060 BKN120 09/01 A3004 RMK AO2 RAE04 SLP178 P0000 T00890011 400941072
Loading
Personal Weather Stations






























Interactive Weather Map New forecast layout! Learn more

10-Day Weather Forecast

Advertisements
Track Severe Weather on mobile